Tenby, United Kingdom
Current Conditions -  °F | °C
As of 3:50 AM on Friday 21 Nov 2014 (Local Time) from EGOP Reporting Station
Overcast Overcast  
Wind Chill: 40°   Ceiling: 1700
Heat Index: 46°   Visibility: 6mi
Dew Point: 41°   Wind: 15mph
Humidity: 81%   Direction: 100°E
Pressure: 30.06"   Gusts: 26mph
Location:  51.67°N, 4.7°W
Report Text: EGOP 210350Z AUTO 10013G23KT 9999 // OVC017/// 08/05 Q1018
Loading
Personal Weather Stations






























Interactive Weather Map New forecast layout! Learn more

10-Day Weather Forecast

Advertisements
Track Severe Weather on mobile